Time;durP1;ratioP1;P1;durP2;ratioP2;P2;SDS_P1;SDS_P2;PMS_P1;PMS_P2;Temp;Humidity;BMP_temperature;BMP_pressure;BME280_temperature;BME280_humidity;BME280_pressure;Samples;Min_cycle;Max_cycle;Signal;HPM_P1;HPM_P2
2022/01/01 00:01:41;;;;;;;;;27.00;25.00;;;;;15.97;55.90;98688.31;6212247;28;97972;-68
2022/01/01 00:04:45;;;;;;;;;19.50;18.50;;;;;16.07;55.64;98687.56;6214502;28;97185;-65
2022/01/01 00:07:48;;;;;;;;;16.40;14.00;;;;;16.08;55.64;98690.00;6246901;27;97229;-65
2022/01/01 00:10:54;;;;;;;;;17.75;14.75;;;;;16.11;55.79;98685.94;6212284;28;98522;-64
2022/01/01 00:14:19;;;;;;;;;14.20;13.00;;;;;15.92;55.90;98699.16;6214365;28;96516;-64
2022/01/01 00:17:22;;;;;;;;;13.00;12.40;;;;;15.91;56.20;98692.88;6212708;28;96627;-68
2022/01/01 00:20:25;;;;;;;;;15.40;13.40;;;;;15.86;56.91;98692.84;6213865;28;97442;-67
2022/01/01 00:23:29;;;;;;;;;15.00;12.60;;;;;15.77;56.91;98697.13;6213599;28;96923;-65
2022/01/01 00:26:32;;;;;;;;;13.00;11.80;;;;;15.69;57.20;98699.47;6213421;28;98109;-65
2022/01/01 00:29:36;;;;;;;;;14.00;12.00;;;;;15.69;57.20;98688.63;6213974;28;97138;-65
2022/01/01 00:32:40;;;;;;;;;15.33;13.67;;;;;15.50;57.85;98704.44;6213753;28;97310;-65
2022/01/01 00:35:44;;;;;;;;;13.00;13.00;;;;;15.34;58.23;98689.09;6211976;28;97384;-68
2022/01/01 00:38:47;;;;;;;;;15.00;15.00;;;;;15.51;58.08;98696.09;6195394;28;96623;-64
2022/01/01 00:41:50;;;;;;;;;14.60;12.60;;;;;15.43;58.23;98704.69;6211545;28;99549;-67
2022/01/01 00:44:55;;;;;;;;;13.00;12.00;;;;;15.35;58.46;98702.41;6204238;28;98524;-68
2022/01/01 00:47:58;;;;;;;;;14.40;14.00;;;;;15.28;58.55;98693.66;6212318;28;98014;-65
2022/01/01 00:51:02;;;;;;;;;12.40;12.40;;;;;15.34;58.56;98699.97;6211425;28;97559;-68
2022/01/01 00:54:05;;;;;;;;;14.00;14.00;;;;;15.15;59.23;98700.31;6211518;28;97463;-65
2022/01/01 00:57:08;;;;;;;;;17.50;14.00;;;;;15.17;59.26;98703.59;6213328;28;97467;-67
2022/01/01 01:00:14;;;;;;;;;16.80;15.00;;;;;15.25;59.21;98706.94;6213338;28;96479;-65
2022/01/01 01:03:18;;;;;;;;;15.00;13.00;;;;;15.29;59.17;98713.50;6211435;28;96833;-67
2022/01/01 01:06:21;;;;;;;;;14.00;13.00;;;;;15.32;59.06;98718.41;6213501;28;97340;-67
2022/01/01 01:09:25;;;;;;;;;14.00;14.00;;;;;15.32;58.80;98702.13;6213161;28;96417;-64
2022/01/01 01:12:38;;;;;;;;;14.40;13.00;;;;;15.37;58.80;98721.19;6194038;28;97173;-67
2022/01/01 01:15:43;;;;;;;;;15.00;13.60;;;;;15.39;58.83;98722.59;6211046;28;97028;-65
2022/01/01 01:18:46;;;;;;;;;17.00;16.00;;;;;15.46;58.52;98723.19;6209320;28;97659;-68
2022/01/01 01:21:51;;;;;;;;;16.00;15.00;;;;;15.39;58.62;98717.16;6209884;28;96982;-68
2022/01/01 01:24:56;;;;;;;;;14.75;12.75;;;;;15.29;58.96;98710.78;6209182;28;96653;-68
2022/01/01 01:28:06;;;;;;;;;15.80;14.40;;;;;15.28;59.01;98715.41;6202600;28;96843;-68
2022/01/01 01:31:11;;;;;;;;;17.00;16.00;;;;;15.28;59.14;98717.28;6212025;28;97483;-65
2022/01/01 01:34:15;;;;;;;;;15.80;13.00;;;;;15.27;59.22;98719.19;6208370;28;96806;-68
2022/01/01 01:37:18;;;;;;;;;14.00;13.00;;;;;15.16;59.21;98715.53;6202100;28;98556;-67
2022/01/01 01:40:21;;;;;;;;;14.80;13.40;;;;;15.30;59.04;98723.28;6205635;28;96840;-65
2022/01/01 01:43:24;;;;;;;;;15.00;13.00;;;;;15.28;59.24;98742.56;6188010;28;98559;-64
2022/01/01 01:46:29;;;;;;;;;15.00;14.00;;;;;15.41;59.09;98739.44;6193752;28;99540;-67
2022/01/01 01:49:33;;;;;;;;;13.67;13.00;;;;;15.33;58.92;98728.22;6191803;28;96984;-65
2022/01/01 01:52:37;;;;;;;;;16.40;15.40;;;;;15.39;58.96;98746.22;6189694;28;97301;-65
2022/01/01 01:55:41;;;;;;;;;13.00;12.00;;;;;15.44;58.73;98757.13;6192820;28;96670;-65
2022/01/01 01:58:45;;;;;;;;;14.40;13.40;;;;;15.49;58.75;98757.19;6192186;28;96616;-68
2022/01/01 02:01:51;;;;;;;;;13.50;12.00;;;;;15.40;58.99;98773.09;6203854;28;97090;-65
2022/01/01 02:04:54;;;;;;;;;14.20;13.20;;;;;15.50;58.88;98765.06;6209302;28;97447;-67
2022/01/01 02:07:57;;;;;;;;;13.60;12.00;;;;;15.52;58.67;98762.94;6210154;28;97507;-68
2022/01/01 02:11:02;;;;;;;;;17.40;14.40;;;;;15.60;58.48;98767.91;6225396;28;97208;-68
2022/01/01 02:14:21;;;;;;;;;15.20;14.80;;;;;15.42;58.76;98776.38;6210512;28;97541;-65
2022/01/01 02:17:30;;;;;;;;;16.60;14.00;;;;;15.52;58.57;98776.53;6211503;28;97465;-65
2022/01/01 02:20:35;;;;;;;;;18.00;16.00;;;;;15.45;58.87;98788.63;6243201;27;97015;-68
2022/01/01 02:23:42;;;;;;;;;19.80;19.20;;;;;15.49;58.90;98792.50;6207561;28;97602;-65
2022/01/01 02:26:45;;;;;;;;;16.50;15.00;;;;;15.41;59.13;98793.75;6206356;28;98507;-65
2022/01/01 02:29:49;;;;;;;;;17.00;15.00;;;;;15.42;58.97;98798.13;6208738;28;96933;-68
2022/01/01 02:32:52;;;;;;;;;15.60;15.00;;;;;15.38;59.29;98804.31;6194233;28;99466;-68
2022/01/01 02:35:56;;;;;;;;;19.00;16.60;;;;;15.53;58.88;98804.53;6185299;28;96504;-68
2022/01/01 02:39:00;;;;;;;;;16.00;15.00;;;;;15.43;59.28;98805.19;6191042;28;97422;-65
2022/01/01 02:42:07;;;;;;;;;19.60;18.00;;;;;15.47;59.25;98808.22;6213434;28;97121;-65
2022/01/01 02:45:12;;;;;;;;;17.00;15.00;;;;;15.42;59.42;98816.31;6214543;28;96597;-65
2022/01/01 02:48:16;;;;;;;;;17.20;14.60;;;;;15.43;59.41;98815.25;6214637;28;97434;-65
2022/01/01 02:51:21;;;;;;;;;16.00;14.60;;;;;15.44;59.33;98809.53;6213759;28;96570;-65
2022/01/01 02:54:24;;;;;;;;;19.20;17.00;;;;;15.56;59.16;98809.44;6213770;28;97474;-65
2022/01/01 02:57:28;;;;;;;;;18.40;16.00;;;;;15.59;59.21;98815.16;6213674;28;96869;-68
2022/01/01 03:00:31;;;;;;;;;16.60;15.60;;;;;15.64;59.12;98814.41;6213117;28;97399;-68
2022/01/01 03:03:34;;;;;;;;;15.00;14.00;;;;;15.64;59.05;98825.28;6212820;28;96911;-67
2022/01/01 03:06:39;;;;;;;;;16.60;14.60;;;;;15.58;59.13;98827.13;6212148;28;97191;-64
2022/01/01 03:09:42;;;;;;;;;20.00;17.00;;;;;15.65;59.06;98816.03;6212514;28;97410;-65
2022/01/01 03:12:46;;;;;;;;;18.00;16.00;;;;;15.59;58.98;98827.94;6213626;28;97988;-64
2022/01/01 03:15:49;;;;;;;;;17.00;16.00;;;;;15.57;59.02;98821.94;6211281;28;98453;-68
2022/01/01 03:18:53;;;;;;;;;17.40;15.00;;;;;15.49;59.54;98823.19;6210307;28;97442;-65
2022/01/01 03:21:58;;;;;;;;;17.00;16.00;;;;;15.51;59.47;98831.13;6213404;28;98113;-65
2022/01/01 03:25:02;;;;;;;;;15.00;13.80;;;;;15.43;59.37;98832.38;6245798;27;97967;-64
2022/01/01 03:28:05;;;;;;;;;17.50;15.75;;;;;15.45;59.61;98829.38;6244929;27;98476;-67
2022/01/01 03:31:09;;;;;;;;;14.50;14.00;;;;;15.34;59.78;98831.19;6211681;28;99630;-68
2022/01/01 03:34:12;;;;;;;;;15.00;14.00;;;;;15.30;60.20;98837.34;6213285;28;96841;-64
2022/01/01 03:37:17;;;;;;;;;14.00;13.00;;;;;15.37;60.11;98852.41;6213137;28;97512;-68
2022/01/01 03:40:20;;;;;;;;;16.00;15.00;;;;;15.37;60.13;98846.13;6213235;28;96858;-67
2022/01/01 03:43:23;;;;;;;;;19.00;14.00;;;;;15.39;60.06;98852.97;6213421;28;97185;-68
2022/01/01 03:46:27;;;;;;;;;13.00;12.00;;;;;15.30;60.25;98857.19;6212758;28;97974;-68
2022/01/01 03:49:30;;;;;;;;;13.00;12.00;;;;;15.33;60.35;98858.59;6212576;28;97423;-68
2022/01/01 03:52:35;;;;;;;;;12.00;10.25;;;;;15.40;60.21;98865.47;6210235;28;96567;-67
2022/01/01 03:55:38;;;;;;;;;13.00;11.00;;;;;15.42;60.06;98867.94;6211535;28;96612;-67
2022/01/01 03:58:42;;;;;;;;;12.00;10.60;;;;;15.41;60.05;98874.44;6213157;28;97094;-69
2022/01/01 04:01:46;;;;;;;;;13.60;12.00;;;;;15.46;60.06;98882.66;6211932;28;97168;-68
2022/01/01 04:04:49;;;;;;;;;13.50;11.50;;;;;15.43;60.15;98885.88;6212710;28;97453;-65
2022/01/01 04:07:54;;;;;;;;;11.40;11.00;;;;;15.50;59.95;98886.50;6212655;28;97039;-67
2022/01/01 04:10:57;;;;;;;;;10.50;10.00;;;;;15.41;60.13;98886.13;6212576;28;97021;-65
2022/01/01 04:14:00;;;;;;;;;11.00;10.75;;;;;15.44;60.04;98887.53;6212670;28;96668;-65
2022/01/01 04:17:04;;;;;;;;;12.40;12.00;;;;;15.51;59.89;98888.19;6210369;28;97815;-68
2022/01/01 04:20:08;;;;;;;;;13.00;11.00;;;;;15.56;59.76;98896.38;6210815;28;97816;-65
2022/01/01 04:23:13;;;;;;;;;11.60;11.60;;;;;15.56;59.87;98897.22;6210025;28;98367;-65
2022/01/01 04:26:17;;;;;;;;;12.00;11.00;;;;;15.53;59.96;98896.91;6211420;28;96897;-68
2022/01/01 04:29:20;;;;;;;;;13.00;11.00;;;;;15.45;60.06;98895.41;6210518;28;97022;-65
2022/01/01 04:32:23;;;;;;;;;11.00;9.67;;;;;15.51;60.18;98891.72;6212197;28;97157;-65
2022/01/01 04:35:27;;;;;;;;;11.00;10.40;;;;;15.35;60.00;98872.72;6212014;28;97449;-66
2022/01/01 04:38:42;;;;;;;;;12.00;10.00;;;;;15.48;59.97;98894.91;6212278;28;96989;-65
2022/01/01 04:41:45;;;;;;;;;9.60;9.00;;;;;15.47;60.34;98897.88;6187596;28;96935;-68
2022/01/01 04:44:48;;;;;;;;;12.00;10.00;;;;;15.56;60.18;98910.78;6187259;28;97607;-68
2022/01/01 04:47:52;;;;;;;;;10.00;9.00;;;;;15.52;60.27;98920.53;6185742;28;96651;-66
2022/01/01 04:50:55;;;;;;;;;9.00;9.00;;;;;15.49;60.44;98906.63;6204250;28;96811;-66
2022/01/01 04:54:02;;;;;;;;;10.50;9.00;;;;;15.45;60.68;98916.31;6209879;28;97357;-65
2022/01/01 04:57:05;;;;;;;;;9.60;8.60;;;;;15.48;60.60;98918.53;6208400;28;97974;-65
2022/01/01 05:00:09;;;;;;;;;9.00;7.80;;;;;15.49;60.59;98918.28;6208920;28;98307;-65
2022/01/01 05:03:13;;;;;;;;;9.00;8.00;;;;;15.46;60.65;98915.25;6211958;28;96787;-65
2022/01/01 05:06:16;;;;;;;;;10.00;9.00;;;;;15.45;60.70;98914.41;6211394;28;97421;-65
2022/01/01 05:09:21;;;;;;;;;9.00;8.00;;;;;15.46;60.76;98920.69;6211452;28;96598;-68
2022/01/01 05:12:24;;;;;;;;;9.00;8.00;;;;;15.44;60.96;98918.22;6211782;28;96467;-69
2022/01/01 05:15:28;;;;;;;;;8.00;8.00;;;;;15.44;60.74;98922.84;6211783;28;97601;-64
2022/01/01 05:18:36;;;;;;;;;9.33;8.00;;;;;15.46;60.74;98921.50;6211335;28;96613;-67
2022/01/01 05:21:40;;;;;;;;;6.80;6.80;;;;;15.40;60.76;98927.94;6209754;28;96730;-65
2022/01/01 05:24:44;;;;;;;;;8.00;8.00;;;;;15.25;61.44;98927.72;6198834;28;96719;-65
2022/01/01 05:27:47;;;;;;;;;8.40;8.40;;;;;15.32;61.23;98931.09;6196411;28;97455;-67
2022/01/01 05:30:51;;;;;;;;;11.00;9.40;;;;;15.20;61.47;98918.72;6188650;28;97543;-68
2022/01/01 05:33:55;;;;;;;;;9.80;9.00;;;;;15.27;61.44;98931.03;6187257;28;96971;-67
2022/01/01 05:36:59;;;;;;;;;9.00;7.25;;;;;15.33;61.17;98945.50;6211114;28;96539;-65
2022/01/01 05:40:05;;;;;;;;;9.00;9.00;;;;;15.31;61.27;98945.75;6210100;28;97745;-67
2022/01/01 05:43:13;;;;;;;;;7.60;7.00;;;;;15.38;61.14;98943.69;6194365;28;98076;-64
2022/01/01 05:46:17;;;;;;;;;12.00;9.40;;;;;15.47;60.93;98949.50;6212615;28;96673;-67
2022/01/01 05:49:20;;;;;;;;;8.40;8.40;;;;;15.43;60.94;98956.53;6211058;28;96600;-67
2022/01/01 05:52:24;;;;;;;;;9.00;8.00;;;;;15.44;60.94;98961.69;6211889;28;97561;-66
2022/01/01 05:55:28;;;;;;;;;7.40;7.00;;;;;15.50;60.88;98965.28;6210360;28;96619;-68
2022/01/01 05:58:32;;;;;;;;;11.50;9.50;;;;;15.51;60.91;98969.69;6210721;28;96676;-67
2022/01/01 06:01:35;;;;;;;;;10.00;8.60;;;;;15.47;61.03;98966.63;6211777;28;96966;-67
2022/01/01 06:04:39;;;;;;;;;9.80;9.00;;;;;15.43;61.06;98961.94;6209923;28;97899;-67
2022/01/01 06:07:43;;;;;;;;;9.00;7.00;;;;;15.46;61.01;98961.44;6210309;28;96753;-65
2022/01/01 06:10:47;;;;;;;;;10.00;8.00;;;;;15.42;61.04;98955.69;6210666;28;96919;-69
2022/01/01 06:13:50;;;;;;;;;8.00;7.80;;;;;15.46;60.89;98962.25;6209648;28;97761;-65
2022/01/01 06:16:54;;;;;;;;;10.00;8.25;;;;;15.40;60.68;98959.72;6195279;28;96702;-65
2022/01/01 06:19:57;;;;;;;;;9.00;8.00;;;;;15.34;60.96;98961.56;6214705;28;96930;-67
2022/01/01 06:23:02;;;;;;;;;12.00;10.00;;;;;15.22;61.39;98968.97;6213043;28;96860;-68
2022/01/01 06:26:07;;;;;;;;;10.50;9.50;;;;;15.29;61.20;98969.66;6212234;28;97105;-68
2022/01/01 06:29:10;;;;;;;;;9.00;8.00;;;;;15.21;61.35;98972.75;6215330;28;96997;-65
2022/01/01 06:32:14;;;;;;;;;7.00;6.00;;;;;15.40;60.89;98976.00;6247157;27;96860;-65
2022/01/01 06:35:17;;;;;;;;;8.00;7.00;;;;;15.43;60.79;98978.25;6214292;28;96868;-68
2022/01/01 06:38:20;;;;;;;;;6.00;5.00;;;;;15.52;60.44;98984.94;6215920;28;96492;-69
2022/01/01 06:41:25;;;;;;;;;5.25;5.00;;;;;15.55;60.38;98993.38;6216291;28;97513;-68
2022/01/01 06:44:29;;;;;;;;;8.00;6.60;;;;;15.52;60.45;98995.78;6216191;28;97082;-65
2022/01/01 06:47:33;;;;;;;;;5.00;4.80;;;;;15.48;60.50;99005.50;6214504;28;96816;-67
2022/01/01 06:50:37;;;;;;;;;7.40;6.00;;;;;15.40;60.68;99008.63;6215643;28;97324;-68
2022/01/01 06:53:44;;;;;;;;;4.80;4.80;;;;;15.41;60.56;99021.97;6213890;28;97104;-65
2022/01/01 06:56:49;;;;;;;;;7.00;6.00;;;;;15.60;60.09;99015.19;6216012;28;97657;-67
2022/01/01 06:59:52;;;;;;;;;6.00;5.20;;;;;15.65;60.05;99019.88;6215456;28;96546;-67
2022/01/01 07:02:55;;;;;;;;;5.25;5.00;;;;;15.64;59.88;99009.28;6216032;28;98065;-65
2022/01/01 07:05:59;;;;;;;;;6.00;5.00;;;;;15.57;59.75;99033.91;6214437;28;97071;-67
2022/01/01 07:09:03;;;;;;;;;8.00;7.00;;;;;15.70;59.87;99033.53;6215487;28;96406;-65
2022/01/01 07:12:08;;;;;;;;;9.00;8.40;;;;;15.67;59.82;99028.63;6214559;28;97904;-65
2022/01/01 07:15:11;;;;;;;;;7.00;7.00;;;;;15.74;59.63;99036.56;6216074;28;96992;-67
2022/01/01 07:18:15;;;;;;;;;5.20;5.20;;;;;15.67;59.78;99046.81;6246168;27;96668;-65
2022/01/01 07:21:18;;;;;;;;;6.00;5.80;;;;;15.68;59.84;99053.91;6205081;28;97491;-67
2022/01/01 07:24:21;;;;;;;;;6.00;5.60;;;;;15.71;59.70;99059.66;6214146;28;96419;-66
2022/01/01 07:27:26;;;;;;;;;6.00;6.00;;;;;15.65;60.01;99059.81;6210735;28;97226;-67
2022/01/01 07:30:29;;;;;;;;;5.25;5.25;;;;;15.62;59.80;99061.16;6214508;28;97021;-68
2022/01/01 07:33:33;;;;;;;;;7.60;7.60;;;;;15.49;59.95;99067.72;6204888;28;96914;-67
2022/01/01 07:36:36;;;;;;;;;9.00;9.00;;;;;15.60;60.11;99057.84;6210802;28;96931;-65
2022/01/01 07:39:39;;;;;;;;;9.00;8.00;;;;;15.56;60.00;99059.44;6201294;28;97265;-65
2022/01/01 07:42:45;;;;;;;;;5.80;5.00;;;;;15.63;60.00;99062.81;6194981;28;96517;-65
2022/01/01 07:45:49;;;;;;;;;8.40;8.00;;;;;15.70;59.77;99070.75;6209491;28;96600;-68
2022/01/01 07:48:53;;;;;;;;;12.00;8.50;;;;;15.74;59.62;99075.44;6211917;28;97854;-65
2022/01/01 07:51:56;;;;;;;;;7.40;7.00;;;;;15.70;59.56;99076.19;6229616;28;96532;-69
2022/01/01 07:55:00;;;;;;;;;9.60;9.00;;;;;15.80;59.56;99081.78;6209147;28;97903;-68
2022/01/01 07:58:08;;;;;;;;;10.60;10.60;;;;;15.83;59.41;99084.81;6195644;28;99661;-65
2022/01/01 08:01:11;;;;;;;;;9.20;8.80;;;;;15.75;59.60;99087.16;6213648;28;96823;-66
2022/01/01 08:04:14;;;;;;;;;11.00;10.00;;;;;15.80;59.50;99090.75;6214462;28;96556;-64
2022/01/01 08:07:17;;;;;;;;;10.40;10.00;;;;;15.69;59.68;99088.97;6213421;28;96609;-67
2022/01/01 08:10:41;;;;;;;;;10.50;9.50;;;;;15.57;60.18;99099.13;6228460;28;97201;-68
2022/01/01 08:13:45;;;;;;;;;9.50;9.00;;;;;15.69;60.02;99099.84;6211459;28;98357;-68
2022/01/01 08:16:56;;;;;;;;;8.00;8.00;;;;;15.69;59.93;99096.28;6211557;28;97885;-68
2022/01/01 08:19:59;;;;;;;;;12.00;11.25;;;;;15.62;60.16;99114.69;6211798;28;96463;-67
2022/01/01 08:23:05;;;;;;;;;11.00;10.00;;;;;15.63;60.01;99114.44;6209296;28;97743;-68
2022/01/01 08:26:08;;;;;;;;;11.00;10.00;;;;;15.73;59.98;99119.22;6211794;28;96447;-66
2022/01/01 08:29:13;;;;;;;;;9.00;7.60;;;;;15.78;59.80;99113.84;6210020;28;99777;-68
2022/01/01 08:32:17;;;;;;;;;12.00;9.50;;;;;15.57;59.67;99099.13;6209970;28;96971;-65
2022/01/01 08:35:20;;;;;;;;;10.00;8.00;;;;;15.77;59.71;99118.47;6213802;28;96987;-65
2022/01/01 08:38:23;;;;;;;;;8.00;8.00;;;;;15.75;59.77;99120.59;6212484;28;97089;-65
2022/01/01 08:41:27;;;;;;;;;11.20;10.20;;;;;15.80;59.66;99117.13;6211413;28;96771;-68
2022/01/01 08:44:31;;;;;;;;;7.00;7.00;;;;;15.78;59.77;99122.00;6201150;28;97087;-65
2022/01/01 08:47:37;;;;;;;;;9.00;8.00;;;;;15.69;59.75;99113.44;6211596;28;98594;-65
2022/01/01 08:50:41;;;;;;;;;9.80;9.00;;;;;15.82;59.71;99134.03;6213858;28;97635;-67
2022/01/01 08:53:44;;;;;;;;;7.40;6.40;;;;;15.79;59.66;99129.88;6228615;28;97524;-68
2022/01/01 08:56:47;;;;;;;;;11.00;10.00;;;;;15.82;59.83;99132.13;6228830;28;98255;-68
2022/01/01 08:59:52;;;;;;;;;9.00;8.00;;;;;15.77;59.79;99121.19;6213657;28;97633;-65
2022/01/01 09:02:56;;;;;;;;;9.60;8.00;;;;;15.93;59.56;99136.63;6228563;28;97399;-68
2022/01/01 09:05:59;;;;;;;;;11.40;9.00;;;;;16.01;59.44;99132.66;6213450;28;96395;-65
2022/01/01 09:09:07;;;;;;;;;9.00;8.00;;;;;15.88;59.49;99146.63;6211217;28;96812;-68
2022/01/01 09:12:12;;;;;;;;;9.40;8.00;;;;;15.94;59.42;99140.16;6212136;28;97371;-67
2022/01/01 09:15:17;;;;;;;;;9.00;9.00;;;;;15.97;59.57;99139.69;6209219;28;98501;-66
2022/01/01 09:18:20;;;;;;;;;9.00;9.00;;;;;15.96;59.47;99136.13;6213026;28;96381;-68
2022/01/01 09:21:23;;;;;;;;;9.60;8.00;;;;;15.93;59.62;99147.50;6212219;28;97443;-65
2022/01/01 09:24:26;;;;;;;;;11.00;9.00;;;;;15.98;59.98;99142.13;6210466;28;98098;-68
2022/01/01 09:27:31;;;;;;;;;8.20;7.60;;;;;16.01;59.61;99151.69;6210575;28;96738;-69
2022/01/01 09:30:35;;;;;;;;;7.00;6.20;;;;;15.88;59.81;99155.56;6211877;28;96799;-66
2022/01/01 09:33:39;;;;;;;;;8.00;7.40;;;;;15.91;59.96;99157.81;6211332;28;96954;-65
2022/01/01 09:36:42;;;;;;;;;8.00;7.00;;;;;15.93;59.86;99163.00;6210586;28;97920;-65
2022/01/01 09:39:45;;;;;;;;;8.00;7.00;;;;;15.88;59.94;99157.50;6212689;28;97367;-65
2022/01/01 09:42:50;;;;;;;;;8.60;8.00;;;;;15.84;59.96;99164.47;6210101;28;99677;-69
2022/01/01 09:45:56;;;;;;;;;10.00;8.00;;;;;15.84;60.13;99157.16;6205672;28;96932;-67
2022/01/01 09:49:00;;;;;;;;;6.60;6.60;;;;;15.86;60.18;99160.47;6212275;28;96519;-64
2022/01/01 09:52:03;;;;;;;;;6.00;5.00;;;;;15.76;60.16;99148.59;6209818;28;97134;-65
2022/01/01 09:55:09;;;;;;;;;7.00;7.00;;;;;15.90;60.09;99168.94;6192715;28;97802;-69
2022/01/01 09:58:12;;;;;;;;;6.40;5.00;;;;;15.74;60.48;99172.47;6210979;28;97207;-65
2022/01/01 10:01:19;;;;;;;;;8.00;7.20;;;;;15.88;60.20;99166.47;6209588;28;98056;-65
2022/01/01 10:04:23;;;;;;;;;6.40;5.00;;;;;15.70;60.30;99166.72;6209858;28;97471;-68
2022/01/01 10:07:28;;;;;;;;;7.80;6.00;;;;;15.81;59.97;99184.03;6211205;28;96903;-68
2022/01/01 10:10:34;;;;;;;;;8.00;8.00;;;;;15.86;59.57;99184.94;6210529;28;97002;-67
2022/01/01 10:13:39;;;;;;;;;7.00;6.00;;;;;16.00;59.57;99188.94;6210030;28;97633;-65
2022/01/01 10:16:45;;;;;;;;;9.33;8.00;;;;;15.94;59.65;99181.78;6210113;28;98095;-65
2022/01/01 10:19:50;;;;;;;;;8.80;8.00;;;;;16.06;59.49;99178.97;6192933;28;99831;-67
2022/01/01 10:22:53;;;;;;;;;8.00;7.50;;;;;16.12;59.28;99180.69;6211758;28;96583;-66
2022/01/01 10:29:36;;;;;;;;;10.00;8.50;;;;;16.16;59.08;99186.44;6207695;28;96626;-68
2022/01/01 10:32:41;;;;;;;;;8.00;8.00;;;;;16.11;59.16;99181.75;6206178;28;97371;-67
2022/01/01 10:35:47;;;;;;;;;9.00;8.00;;;;;16.18;59.28;99179.69;6208339;28;96823;-65
2022/01/01 10:38:51;;;;;;;;;10.00;9.00;;;;;16.21;59.29;99181.09;6207908;28;97454;-65
2022/01/01 10:41:58;;;;;;;;;11.00;9.00;;;;;16.17;59.07;99180.78;6204935;28;97440;-66
2022/01/01 10:45:01;;;;;;;;;10.00;9.00;;;;;16.23;58.88;99174.31;6204937;28;97135;-68
2022/01/01 10:48:17;;;;;;;;;11.80;10.00;;;;;16.27;58.93;99178.16;6208001;28;96494;-68
2022/01/01 10:51:20;;;;;;;;;11.00;11.00;;;;;16.25;59.02;99171.34;6204515;28;96934;-68
2022/01/01 10:54:26;;;;;;;;;11.20;9.80;;;;;16.12;59.05;99158.13;6204016;28;97300;-68
2022/01/01 10:57:33;;;;;;;;;14.00;14.00;;;;;16.32;58.98;99174.72;6201779;28;98793;-67
2022/01/01 11:00:43;;;;;;;;;11.80;11.80;;;;;16.14;58.88;99173.09;6197918;28;96711;-65
2022/01/01 11:03:49;;;;;;;;;12.00;11.00;;;;;16.22;59.33;99180.84;6207181;27;97841;-67
2022/01/01 11:06:52;;;;;;;;;12.60;11.40;;;;;16.24;59.23;99177.84;6178145;28;98972;-65
2022/01/01 11:09:57;;;;;;;;;12.50;11.00;;;;;16.28;59.34;99181.72;6192671;28;97369;-68
2022/01/01 11:13:01;;;;;;;;;12.00;11.60;;;;;16.28;59.34;99174.38;6204621;28;97654;-64
2022/01/01 11:16:06;;;;;;;;;10.80;10.80;;;;;16.25;59.21;99174.06;6210480;28;96696;-68
2022/01/01 11:19:11;;;;;;;;;11.40;10.00;;;;;16.21;59.46;99179.19;6211689;28;97111;-66
2022/01/01 11:22:16;;;;;;;;;12.00;10.60;;;;;16.27;59.13;99169.19;6212236;28;97151;-66
2022/01/01 11:25:20;;;;;;;;;10.40;9.40;;;;;16.24;59.09;99169.69;6209486;28;99734;-64
2022/01/01 11:28:24;;;;;;;;;7.00;7.00;;;;;16.26;59.33;99168.38;6212749;28;100632;-65
2022/01/01 11:31:33;;;;;;;;;10.80;10.00;;;;;16.24;59.22;99170.50;6246349;27;98629;-63
2022/01/01 11:34:39;;;;;;;;;10.00;9.60;;;;;16.32;59.00;99172.78;6243741;27;97626;-66
2022/01/01 11:37:48;;;;;;;;;11.00;9.20;;;;;16.39;58.93;99170.72;6212127;28;97646;-64
2022/01/01 11:40:57;;;;;;;;;9.00;9.00;;;;;16.39;58.90;99164.44;6213612;28;96795;-64
2022/01/01 11:44:01;;;;;;;;;10.20;9.20;;;;;16.53;58.52;99164.88;6207515;28;97994;-65
2022/01/01 11:47:06;;;;;;;;;6.50;6.50;;;;;16.55;58.35;99173.63;6211776;28;97112;-66
2022/01/01 11:50:42;;;;;;;;;9.00;8.00;;;;;16.48;58.44;99165.66;6194486;28;97572;-64
2022/01/01 11:54:06;;;;;;;;;9.00;8.40;;;;;16.49;58.31;99164.59;6212765;28;98073;-66
2022/01/01 11:57:16;;;;;;;;;8.00;8.00;;;;;16.61;58.03;99165.31;6210302;28;97353;-66
2022/01/01 12:00:22;;;;;;;;;10.00;8.50;;;;;16.69;57.72;99174.94;6213661;28;97459;-64
2022/01/01 12:03:26;;;;;;;;;7.60;7.00;;;;;16.73;57.33;99176.06;6220470;28;96534;-63
2022/01/01 12:06:38;;;;;;;;;8.00;7.00;;;;;16.69;57.26;99177.66;6209459;28;97389;-63
2022/01/01 12:09:49;;;;;;;;;12.00;10.00;;;;;16.65;57.32;99169.19;6209840;28;97794;-66
2022/01/01 12:12:54;;;;;;;;;9.00;9.00;;;;;16.61;57.42;99168.03;6210834;28;97046;-64
2022/01/01 12:15:57;;;;;;;;;10.00;9.60;;;;;16.60;57.40;99169.13;6209437;28;97944;-64
2022/01/01 12:19:03;;;;;;;;;8.80;7.60;;;;;16.64;57.17;99175.69;6211145;28;96753;-66
2022/01/01 12:22:08;;;;;;;;;8.00;8.00;;;;;16.63;57.30;99175.94;6208271;28;97763;-66
2022/01/01 12:25:15;;;;;;;;;10.67;9.00;;;;;16.71;57.13;99184.47;6211385;28;96634;-65
2022/01/01 12:28:19;;;;;;;;;9.40;9.40;;;;;16.68;57.00;99163.22;6211803;28;97437;-64
2022/01/01 12:31:23;;;;;;;;;7.80;7.80;;;;;16.87;57.07;99178.13;6210936;28;97135;-64
2022/01/01 12:34:27;;;;;;;;;9.00;8.00;;;;;17.03;56.94;99164.69;6210077;28;96883;-64
2022/01/01 12:37:37;;;;;;;;;11.80;9.80;;;;;17.30;56.70;99173.66;6205819;28;96864;-66
2022/01/01 12:40:59;;;;;;;;;9.00;8.00;;;;;17.35;56.17;99179.16;6208673;28;97197;-64
2022/01/01 12:44:05;;;;;;;;;7.40;7.00;;;;;17.25;56.42;99170.91;6209569;28;97280;-65
2022/01/01 12:47:13;;;;;;;;;9.00;9.00;;;;;17.35;56.14;99181.09;6210186;28;97892;-67
2022/01/01 12:50:17;;;;;;;;;9.40;7.00;;;;;17.41;55.93;99172.69;6194831;28;97887;-66
2022/01/01 12:53:21;;;;;;;;;9.50;9.00;;;;;17.12;56.01;99160.41;6208704;28;98044;-65
2022/01/01 12:56:26;;;;;;;;;11.00;9.00;;;;;17.29;55.77;99193.84;6210987;28;97382;-66
2022/01/01 12:59:29;;;;;;;;;10.75;8.75;;;;;17.27;56.01;99202.25;6209704;28;97295;-67
2022/01/01 13:02:33;;;;;;;;;10.00;8.00;;;;;17.28;56.02;99197.66;6212271;28;97443;-65
2022/01/01 13:05:39;;;;;;;;;11.00;9.00;;;;;17.27;56.04;99202.25;6211673;28;96728;-67
2022/01/01 13:08:44;;;;;;;;;11.00;10.00;;;;;17.22;55.92;99199.50;6210022;28;96955;-67
2022/01/01 13:11:49;;;;;;;;;10.00;9.40;;;;;17.28;55.86;99197.66;6205619;28;96439;-67
2022/01/01 13:14:54;;;;;;;;;13.00;12.00;;;;;17.17;55.81;99199.44;6211609;28;96773;-66
2022/01/01 13:18:00;;;;;;;;;12.00;11.80;;;;;17.17;55.78;99206.78;6208365;28;97003;-66
2022/01/01 13:21:04;;;;;;;;;13.60;11.00;;;;;17.14;56.19;99208.13;6189130;28;100128;-67
2022/01/01 13:24:10;;;;;;;;;11.25;10.25;;;;;17.09;55.57;99224.44;6210614;28;97279;-66
2022/01/01 13:27:13;;;;;;;;;12.80;11.00;;;;;17.02;55.65;99220.22;6207374;28;97882;-65
2022/01/01 13:30:16;;;;;;;;;12.20;11.20;;;;;16.97;55.92;99225.63;6211551;28;97132;-64
2022/01/01 13:33:23;;;;;;;;;11.00;10.00;;;;;16.92;55.80;99231.84;6205460;28;98559;-66
2022/01/01 13:36:31;;;;;;;;;12.00;11.60;;;;;16.94;55.87;99235.16;6209469;28;96769;-66
2022/01/01 13:39:37;;;;;;;;;12.75;11.00;;;;;16.80;56.32;99239.31;6211942;28;96557;-65
2022/01/01 13:42:40;;;;;;;;;11.00;11.00;;;;;16.86;56.39;99236.41;6211172;28;97506;-64
2022/01/01 13:45:43;;;;;;;;;13.00;11.20;;;;;16.82;56.29;99243.44;6211272;28;96564;-66
2022/01/01 13:48:49;;;;;;;;;14.60;11.00;;;;;16.78;56.45;99245.03;6211664;28;97147;-66
2022/01/01 13:51:57;;;;;;;;;14.00;13.00;;;;;16.71;56.64;99246.31;6211391;28;97161;-63
2022/01/01 13:55:04;;;;;;;;;14.50;13.00;;;;;16.73;56.56;99250.41;6203674;28;97176;-65
2022/01/01 13:58:08;;;;;;;;;12.25;11.25;;;;;16.73;56.61;99255.84;6208302;28;98815;-64
2022/01/01 14:01:15;;;;;;;;;14.00;13.60;;;;;16.69;56.78;99267.50;6210204;28;96639;-66
2022/01/01 14:04:20;;;;;;;;;13.60;12.60;;;;;16.58;57.06;99262.94;6207151;28;96595;-67
2022/01/01 14:07:24;;;;;;;;;13.00;12.00;;;;;16.65;57.06;99266.34;6221847;28;96682;-64
2022/01/01 14:10:33;;;;;;;;;13.80;13.00;;;;;16.66;57.13;99273.44;6209905;28;97166;-66
2022/01/01 14:13:38;;;;;;;;;14.00;13.00;;;;;16.74;56.88;99286.63;6211317;28;96525;-67
2022/01/01 14:16:46;;;;;;;;;13.00;13.00;;;;;16.72;56.93;99289.59;6209312;28;99499;-66
2022/01/01 14:19:49;;;;;;;;;13.40;13.00;;;;;16.66;57.01;99287.88;6187887;28;98076;-65
2022/01/01 14:23:00;;;;;;;;;13.00;12.00;;;;;16.72;56.95;99294.19;6191474;28;97025;-67